createdAt,value
2019-04-28T00:01:25.138Z,76808.77
2019-04-28T00:06:38.448Z,76810.77
2019-04-28T00:11:51.923Z,76807.77
2019-04-28T00:17:11.101Z,76809.77
2019-04-28T00:22:31.477Z,76804.77
2019-04-28T00:27:44.577Z,76814.76
2019-04-28T00:32:59.608Z,76825.74
2019-04-28T00:38:14.732Z,76827.73
2019-04-28T00:43:31.813Z,76839.72
2019-04-28T00:54:18.077Z,76851.70
2019-04-28T00:59:32.903Z,76840.72
2019-04-28T01:04:46.201Z,76833.73
2019-04-28T01:10:02.701Z,76832.73
2019-04-28T01:15:49.685Z,76830.73
2019-04-28T01:20:59.680Z,76831.73
2019-04-28T01:26:14.795Z,76827.73
2019-04-28T01:31:36.014Z,76833.73
2019-04-28T01:36:51.599Z,76840.72
2019-04-28T01:42:10.665Z,76851.70
2019-04-28T01:47:23.680Z,76867.67
2019-04-28T01:52:34.547Z,76873.66
2019-04-28T01:57:51.633Z,76872.66
2019-04-28T02:02:58.147Z,76870.67
2019-04-28T02:08:10.832Z,76867.67
2019-04-28T02:13:25.720Z,76857.69
2019-04-28T02:18:43.665Z,76860.69
2019-04-28T02:24:04.108Z,76859.69
2019-04-28T02:29:20.170Z,76865.67
2019-04-28T02:34:54.041Z,76873.66
2019-04-28T02:40:10.341Z,76890.64
2019-04-28T02:45:24.376Z,76898.63
2019-04-28T02:51:01.805Z,76911.61
2019-04-28T02:56:15.883Z,76913.60
2019-04-28T03:01:27.495Z,76909.61
2019-04-28T03:06:40.747Z,76907.61
2019-04-28T03:11:56.672Z,76906.61
2019-04-28T03:17:52.436Z,76903.62
2019-04-28T03:23:09.102Z,76907.61
2019-04-28T03:28:33.956Z,76916.59
2019-04-28T03:33:50.449Z,76931.58
2019-04-28T03:39:00.825Z,76950.55
2019-04-28T03:44:14.650Z,76965.52
2019-04-28T03:49:36.676Z,76976.50
2019-04-28T03:54:53.224Z,76982.50
2019-04-28T04:00:23.376Z,76977.50
2019-04-28T04:05:40.756Z,76962.52
2019-04-28T04:11:13.368Z,76952.54
2019-04-28T04:16:50.303Z,76945.55
2019-04-28T04:22:01.869Z,76951.55
2019-04-28T04:27:15.968Z,76965.52
2019-04-28T04:32:27.178Z,76982.50
2019-04-28T04:37:43.579Z,76994.48
2019-04-28T04:43:06.301Z,77005.46
2019-04-28T04:48:26.305Z,77021.44
2019-04-28T04:53:40.869Z,77031.42
2019-04-28T04:58:50.674Z,77027.42
2019-04-28T05:04:12.118Z,77020.44
2019-04-28T05:09:19.755Z,77026.42
2019-04-28T05:14:39.515Z,77027.42
2019-04-28T05:19:54.401Z,77042.41
2019-04-28T05:25:15.479Z,77061.38
2019-04-28T05:30:34.771Z,77078.34
2019-04-28T05:35:50.238Z,77098.31
2019-04-28T05:41:00.301Z,77110.30
2019-04-28T05:46:15.962Z,77123.28
2019-04-28T05:51:30.383Z,77133.27
2019-04-28T05:56:50.055Z,77127.27
2019-04-28T06:02:10.344Z,77108.30
2019-04-28T06:07:30.680Z,77101.31
2019-04-28T06:12:41.963Z,77093.33
2019-04-28T06:17:50.327Z,77091.33
2019-04-28T06:23:08.408Z,77103.31
2019-04-28T06:28:32.074Z,77111.30
2019-04-28T06:33:47.941Z,77115.30
2019-04-28T06:39:10.706Z,77129.27
2019-04-28T06:44:36.518Z,77135.27
2019-04-28T06:49:55.487Z,77145.25
2019-04-28T06:55:15.524Z,77141.25
2019-04-28T07:06:04.573Z,77108.30
2019-04-28T07:11:14.001Z,77086.34
2019-04-28T07:16:29.031Z,77077.34
2019-04-28T07:21:56.063Z,77078.34
2019-04-28T07:27:11.613Z,77083.34
2019-04-28T07:32:26.921Z,77095.32
2019-04-28T07:37:56.549Z,77101.31
2019-04-28T07:43:07.136Z,77105.31
2019-04-28T07:48:18.090Z,77108.30
2019-04-28T07:53:52.507Z,77105.31
2019-04-28T07:59:02.293Z,77095.32
2019-04-28T08:04:39.160Z,77087.33
2019-04-28T08:09:53.326Z,77069.36
2019-04-28T08:15:07.055Z,77051.39
2019-04-28T08:20:27.853Z,77047.39
2019-04-28T08:25:52.992Z,77043.40
2019-04-28T08:31:23.794Z,77044.40
2019-04-28T08:36:34.423Z,77054.38
2019-04-28T08:42:04.577Z,77059.38
2019-04-28T08:47:21.077Z,77066.36
2019-04-28T08:52:31.341Z,77065.37
2019-04-28T08:57:43.342Z,77054.38
2019-04-28T09:03:06.747Z,77032.42
2019-04-28T09:08:22.698Z,77027.42
2019-04-28T09:13:56.778Z,77018.44
2019-04-28T09:19:08.370Z,77010.45
2019-04-28T09:24:24.227Z,77013.45
2019-04-28T09:29:39.522Z,77024.43
2019-04-28T09:34:57.932Z,77021.44
2019-04-28T09:40:17.787Z,77026.42
2019-04-28T09:45:33.111Z,77029.42
2019-04-28T09:51:03.980Z,77023.44
2019-04-28T09:56:18.925Z,77014.45
2019-04-28T10:01:29.329Z,76999.47
2019-04-28T10:06:43.628Z,76987.48
2019-04-28T10:11:54.690Z,76980.50
2019-04-28T10:17:04.776Z,76973.51
2019-04-28T10:22:16.260Z,76979.50
2019-04-28T10:27:29.489Z,76981.50
2019-04-28T10:33:02.743Z,76988.48
2019-04-28T10:38:21.699Z,76993.48
2019-04-28T10:43:38.575Z,76997.47
2019-04-28T10:48:54.120Z,77000.47
2019-04-28T10:54:03.629Z,76996.47
2019-04-28T10:59:17.866Z,76989.48
2019-04-28T11:05:08.730Z,76982.50
2019-04-28T11:10:20.032Z,76976.50
2019-04-28T11:15:34.076Z,76976.50
2019-04-28T11:20:46.281Z,76975.50
2019-04-28T11:26:25.820Z,76980.50
2019-04-28T11:31:49.098Z,76980.50
2019-04-28T11:36:59.977Z,76975.50
2019-04-28T11:42:14.046Z,76980.50
2019-04-28T11:47:24.967Z,76976.50
2019-04-28T11:52:35.771Z,76970.52
2019-04-28T11:57:46.961Z,76962.52
2019-04-28T12:03:00.239Z,76956.53
2019-04-28T12:08:13.357Z,76942.55
2019-04-28T12:13:58.473Z,76926.58
2019-04-28T12:19:37.596Z,76919.59
2019-04-28T12:24:55.845Z,76909.61
2019-04-28T12:30:09.562Z,76907.61
2019-04-28T12:35:19.725Z,76907.61
2019-04-28T12:40:32.906Z,76906.61
2019-04-28T12:45:44.364Z,76904.62
2019-04-28T12:51:18.572Z,76894.63
2019-04-28T12:56:29.092Z,76877.66
2019-04-28T13:02:05.792Z,76858.69
2019-04-28T13:07:18.896Z,76846.70
2019-04-28T13:12:40.154Z,76831.73
2019-04-28T13:17:52.457Z,76817.75
2019-04-28T13:23:01.530Z,76817.75
2019-04-28T13:28:14.890Z,76814.76
2019-04-28T13:33:28.975Z,76811.77
2019-04-28T13:39:02.255Z,76806.77
2019-04-28T13:44:15.702Z,76805.77
2019-04-28T13:50:03.683Z,76802.78
2019-04-28T13:55:30.032Z,76785.80
2019-04-28T14:01:00.239Z,76763.84
2019-04-28T14:06:11.784Z,76746.86
2019-04-28T14:11:26.887Z,76727.90
2019-04-28T14:16:40.262Z,76715.91
2019-04-28T14:22:19.796Z,76717.91
2019-04-28T14:27:37.797Z,76726.90
2019-04-28T14:32:52.653Z,76721.91
2019-04-28T14:38:28.146Z,76719.91
2019-04-28T14:43:55.500Z,76707.93
2019-04-28T14:49:07.090Z,76705.94
2019-04-28T14:54:20.571Z,76686.96
2019-04-28T14:59:48.690Z,76669.98
2019-04-28T15:05:22.441Z,76661.00
2019-04-28T15:11:11.835Z,76652.02
2019-04-28T15:16:54.443Z,76628.06
